sensor_id;sensor_type;location;lat;lon;timestamp;temperature;humidity
56046;DHT22;41913;51.030;3.706;2023-09-07T00:00:29;26.90;87.70
56046;DHT22;41913;51.030;3.706;2023-09-07T00:02:55;26.90;87.70
56046;DHT22;41913;51.030;3.706;2023-09-07T00:05:23;26.80;87.50
56046;DHT22;41913;51.030;3.706;2023-09-07T00:07:50;26.80;87.40
56046;DHT22;41913;51.030;3.706;2023-09-07T00:10:16;26.80;87.30
56046;DHT22;41913;51.030;3.706;2023-09-07T00:12:43;26.80;87.30
56046;DHT22;41913;51.030;3.706;2023-09-07T00:15:10;26.80;87.20
56046;DHT22;41913;51.030;3.706;2023-09-07T00:17:37;26.80;87.00
56046;DHT22;41913;51.030;3.706;2023-09-07T00:20:03;26.80;87.00
56046;DHT22;41913;51.030;3.706;2023-09-07T00:22:41;26.80;86.90
56046;DHT22;41913;51.030;3.706;2023-09-07T00:25:07;26.80;86.80
56046;DHT22;41913;51.030;3.706;2023-09-07T00:27:37;26.80;86.70
56046;DHT22;41913;51.030;3.706;2023-09-07T00:30:03;26.80;86.70
56046;DHT22;41913;51.030;3.706;2023-09-07T00:32:38;26.70;86.50
56046;DHT22;41913;51.030;3.706;2023-09-07T00:35:05;26.70;86.50
56046;DHT22;41913;51.030;3.706;2023-09-07T00:37:33;26.70;86.50
56046;DHT22;41913;51.030;3.706;2023-09-07T00:39:59;26.70;86.50
56046;DHT22;41913;51.030;3.706;2023-09-07T00:42:24;26.70;86.40
56046;DHT22;41913;51.030;3.706;2023-09-07T00:44:50;26.70;86.40
56046;DHT22;41913;51.030;3.706;2023-09-07T00:47:16;26.70;86.40
56046;DHT22;41913;51.030;3.706;2023-09-07T00:49:42;26.70;86.30
56046;DHT22;41913;51.030;3.706;2023-09-07T00:52:08;26.70;86.30
56046;DHT22;41913;51.030;3.706;2023-09-07T00:54:38;26.70;86.30
56046;DHT22;41913;51.030;3.706;2023-09-07T00:57:07;26.70;86.30
56046;DHT22;41913;51.030;3.706;2023-09-07T00:59:34;26.70;86.30
56046;DHT22;41913;51.030;3.706;2023-09-07T01:01:59;26.70;86.20
56046;DHT22;41913;51.030;3.706;2023-09-07T01:04:25;26.70;86.20
56046;DHT22;41913;51.030;3.706;2023-09-07T01:06:56;26.70;86.10
56046;DHT22;41913;51.030;3.706;2023-09-07T01:09:24;26.60;86.00
56046;DHT22;41913;51.030;3.706;2023-09-07T01:11:53;26.60;86.00
56046;DHT22;41913;51.030;3.706;2023-09-07T01:14:19;26.60;86.00
56046;DHT22;41913;51.030;3.706;2023-09-07T01:16:46;26.60;86.00
56046;DHT22;41913;51.030;3.706;2023-09-07T01:19:12;26.60;86.00
56046;DHT22;41913;51.030;3.706;2023-09-07T01:21:39;26.60;85.90
56046;DHT22;41913;51.030;3.706;2023-09-07T01:24:07;26.60;85.90
56046;DHT22;41913;51.030;3.706;2023-09-07T01:26:34;26.60;85.90
56046;DHT22;41913;51.030;3.706;2023-09-07T01:29:01;26.50;85.90
56046;DHT22;41913;51.030;3.706;2023-09-07T01:31:28;26.50;85.90
56046;DHT22;41913;51.030;3.706;2023-09-07T01:33:54;26.50;85.90
56046;DHT22;41913;51.030;3.706;2023-09-07T01:36:20;26.50;85.90
56046;DHT22;41913;51.030;3.706;2023-09-07T01:38:46;26.50;85.90
56046;DHT22;41913;51.030;3.706;2023-09-07T01:41:12;26.50;85.90
56046;DHT22;41913;51.030;3.706;2023-09-07T01:43:38;26.50;86.00
56046;DHT22;41913;51.030;3.706;2023-09-07T01:46:03;26.40;85.90
56046;DHT22;41913;51.030;3.706;2023-09-07T01:48:29;26.40;85.90
56046;DHT22;41913;51.030;3.706;2023-09-07T01:50:57;26.40;85.90
56046;DHT22;41913;51.030;3.706;2023-09-07T01:53:22;26.40;85.90
56046;DHT22;41913;51.030;3.706;2023-09-07T01:55:54;26.40;86.00
56046;DHT22;41913;51.030;3.706;2023-09-07T01:58:22;26.40;86.00
56046;DHT22;41913;51.030;3.706;2023-09-07T02:00:49;26.40;85.90
56046;DHT22;41913;51.030;3.706;2023-09-07T02:03:15;26.40;86.00
56046;DHT22;41913;51.030;3.706;2023-09-07T02:05:45;26.40;86.00
56046;DHT22;41913;51.030;3.706;2023-09-07T02:08:11;26.40;86.00
56046;DHT22;41913;51.030;3.706;2023-09-07T02:10:38;26.40;86.00
56046;DHT22;41913;51.030;3.706;2023-09-07T02:13:04;26.30;86.00
56046;DHT22;41913;51.030;3.706;2023-09-07T02:15:30;26.40;86.60
56046;DHT22;41913;51.030;3.706;2023-09-07T02:17:56;26.40;86.00
56046;DHT22;41913;51.030;3.706;2023-09-07T02:20:22;26.30;86.00
56046;DHT22;41913;51.030;3.706;2023-09-07T02:22:48;26.30;86.00
56046;DHT22;41913;51.030;3.706;2023-09-07T02:25:14;26.30;86.00
56046;DHT22;41913;51.030;3.706;2023-09-07T02:27:40;26.30;86.00
56046;DHT22;41913;51.030;3.706;2023-09-07T02:30:06;26.30;86.00
56046;DHT22;41913;51.030;3.706;2023-09-07T02:32:33;26.30;86.00
56046;DHT22;41913;51.030;3.706;2023-09-07T02:34:59;26.30;86.00
56046;DHT22;41913;51.030;3.706;2023-09-07T02:37:25;26.30;86.00
56046;DHT22;41913;51.030;3.706;2023-09-07T02:39:54;26.30;86.00
56046;DHT22;41913;51.030;3.706;2023-09-07T02:42:20;26.20;85.90
56046;DHT22;41913;51.030;3.706;2023-09-07T02:44:47;26.20;85.90
56046;DHT22;41913;51.030;3.706;2023-09-07T02:47:15;26.20;86.00
56046;DHT22;41913;51.030;3.706;2023-09-07T02:49:42;26.20;86.00
56046;DHT22;41913;51.030;3.706;2023-09-07T02:52:07;26.20;85.90
56046;DHT22;41913;51.030;3.706;2023-09-07T02:54:33;26.20;86.00
56046;DHT22;41913;51.030;3.706;2023-09-07T02:57:00;26.20;86.00
56046;DHT22;41913;51.030;3.706;2023-09-07T02:59:26;26.20;85.90
56046;DHT22;41913;51.030;3.706;2023-09-07T03:01:51;26.20;85.90
56046;DHT22;41913;51.030;3.706;2023-09-07T03:04:17;26.10;85.90
56046;DHT22;41913;51.030;3.706;2023-09-07T03:06:42;26.20;85.90
56046;DHT22;41913;51.030;3.706;2023-09-07T03:09:08;26.10;85.90
56046;DHT22;41913;51.030;3.706;2023-09-07T03:11:36;26.10;85.80
56046;DHT22;41913;51.030;3.706;2023-09-07T03:14:02;26.10;85.80
56046;DHT22;41913;51.030;3.706;2023-09-07T03:16:27;26.10;85.80
56046;DHT22;41913;51.030;3.706;2023-09-07T03:18:54;26.10;85.80
56046;DHT22;41913;51.030;3.706;2023-09-07T03:21:20;26.10;85.80
56046;DHT22;41913;51.030;3.706;2023-09-07T03:23:52;26.10;85.80
56046;DHT22;41913;51.030;3.706;2023-09-07T03:26:17;26.10;85.80
56046;DHT22;41913;51.030;3.706;2023-09-07T03:28:43;26.10;85.80
56046;DHT22;41913;51.030;3.706;2023-09-07T03:31:09;26.10;85.80
56046;DHT22;41913;51.030;3.706;2023-09-07T03:33:34;26.10;85.80
56046;DHT22;41913;51.030;3.706;2023-09-07T03:36:00;26.10;86.40
56046;DHT22;41913;51.030;3.706;2023-09-07T03:38:26;26.00;85.80
56046;DHT22;41913;51.030;3.706;2023-09-07T03:40:52;26.00;85.80
56046;DHT22;41913;51.030;3.706;2023-09-07T03:43:19;26.00;85.80
56046;DHT22;41913;51.030;3.706;2023-09-07T03:45:45;26.00;85.80
56046;DHT22;41913;51.030;3.706;2023-09-07T03:48:10;26.00;85.80
56046;DHT22;41913;51.030;3.706;2023-09-07T03:50:36;26.00;85.80
56046;DHT22;41913;51.030;3.706;2023-09-07T03:53:02;26.00;85.70
56046;DHT22;41913;51.030;3.706;2023-09-07T03:55:28;26.00;85.70
56046;DHT22;41913;51.030;3.706;2023-09-07T03:57:54;26.00;85.70
56046;DHT22;41913;51.030;3.706;2023-09-07T04:00:21;25.90;85.60
56046;DHT22;41913;51.030;3.706;2023-09-07T04:02:46;25.90;85.70
56046;DHT22;41913;51.030;3.706;2023-09-07T04:05:12;25.90;85.70
56046;DHT22;41913;51.030;3.706;2023-09-07T04:07:38;25.90;85.70
56046;DHT22;41913;51.030;3.706;2023-09-07T04:10:05;25.90;85.70
56046;DHT22;41913;51.030;3.706;2023-09-07T04:12:31;25.90;85.80
56046;DHT22;41913;51.030;3.706;2023-09-07T04:14:57;25.90;85.70
56046;DHT22;41913;51.030;3.706;2023-09-07T04:17:22;25.90;85.70
56046;DHT22;41913;51.030;3.706;2023-09-07T04:19:48;25.80;85.60
56046;DHT22;41913;51.030;3.706;2023-09-07T04:22:16;25.80;85.60
56046;DHT22;41913;51.030;3.706;2023-09-07T04:24:42;25.80;85.70
56046;DHT22;41913;51.030;3.706;2023-09-07T04:27:09;25.80;85.60
56046;DHT22;41913;51.030;3.706;2023-09-07T04:29:35;25.70;85.60
56046;DHT22;41913;51.030;3.706;2023-09-07T04:32:02;25.70;85.60
56046;DHT22;41913;51.030;3.706;2023-09-07T04:34:28;25.70;85.60
56046;DHT22;41913;51.030;3.706;2023-09-07T04:36:54;25.70;85.60
56046;DHT22;41913;51.030;3.706;2023-09-07T04:39:20;25.70;85.50
56046;DHT22;41913;51.030;3.706;2023-09-07T04:41:45;25.70;86.10
56046;DHT22;41913;51.030;3.706;2023-09-07T04:44:11;25.70;85.50
56046;DHT22;41913;51.030;3.706;2023-09-07T04:46:37;25.70;85.50
56046;DHT22;41913;51.030;3.706;2023-09-07T04:49:02;25.70;85.50
56046;DHT22;41913;51.030;3.706;2023-09-07T04:51:28;25.60;85.40
56046;DHT22;41913;51.030;3.706;2023-09-07T04:53:54;25.60;85.40
56046;DHT22;41913;51.030;3.706;2023-09-07T04:56:19;25.60;85.40
56046;DHT22;41913;51.030;3.706;2023-09-07T04:58:47;25.60;85.40
56046;DHT22;41913;51.030;3.706;2023-09-07T05:01:13;25.60;85.40
56046;DHT22;41913;51.030;3.706;2023-09-07T05:03:38;25.50;85.30
56046;DHT22;41913;51.030;3.706;2023-09-07T05:06:07;25.50;85.40
56046;DHT22;41913;51.030;3.706;2023-09-07T05:08:34;25.50;85.30
56046;DHT22;41913;51.030;3.706;2023-09-07T05:11:02;25.50;85.20
56046;DHT22;41913;51.030;3.706;2023-09-07T05:13:29;25.40;85.10
56046;DHT22;41913;51.030;3.706;2023-09-07T05:15:56;25.40;85.10
56046;DHT22;41913;51.030;3.706;2023-09-07T05:18:23;25.40;85.20
56046;DHT22;41913;51.030;3.706;2023-09-07T05:20:49;25.30;85.20
56046;DHT22;41913;51.030;3.706;2023-09-07T05:23:21;25.30;85.40
56046;DHT22;41913;51.030;3.706;2023-09-07T05:25:51;25.30;85.40
56046;DHT22;41913;51.030;3.706;2023-09-07T05:28:18;25.30;85.50
56046;DHT22;41913;51.030;3.706;2023-09-07T05:30:44;25.20;85.60
56046;DHT22;41913;51.030;3.706;2023-09-07T05:33:11;25.30;85.90
56046;DHT22;41913;51.030;3.706;2023-09-07T05:35:38;25.30;85.80
56046;DHT22;41913;51.030;3.706;2023-09-07T05:38:07;25.30;86.20
56046;DHT22;41913;51.030;3.706;2023-09-07T05:40:43;25.30;85.90
56046;DHT22;41913;51.030;3.706;2023-09-07T05:43:15;25.30;86.00
56046;DHT22;41913;51.030;3.706;2023-09-07T05:45:41;25.30;86.30
56046;DHT22;41913;51.030;3.706;2023-09-07T05:48:08;25.30;86.60
56046;DHT22;41913;51.030;3.706;2023-09-07T05:50:36;25.30;86.50
56046;DHT22;41913;51.030;3.706;2023-09-07T05:53:02;25.30;86.60
56046;DHT22;41913;51.030;3.706;2023-09-07T05:55:28;25.30;86.60
56046;DHT22;41913;51.030;3.706;2023-09-07T05:57:54;25.30;86.50
56046;DHT22;41913;51.030;3.706;2023-09-07T06:00:20;25.30;86.60
56046;DHT22;41913;51.030;3.706;2023-09-07T06:02:46;25.30;86.70
56046;DHT22;41913;51.030;3.706;2023-09-07T06:05:13;25.30;86.60
56046;DHT22;41913;51.030;3.706;2023-09-07T06:07:38;25.30;86.70
56046;DHT22;41913;51.030;3.706;2023-09-07T06:10:05;25.20;86.70
56046;DHT22;41913;51.030;3.706;2023-09-07T06:12:39;25.30;86.70
56046;DHT22;41913;51.030;3.706;2023-09-07T06:15:05;25.20;86.60
56046;DHT22;41913;51.030;3.706;2023-09-07T06:17:31;25.20;86.60
56046;DHT22;41913;51.030;3.706;2023-09-07T06:19:57;25.20;86.70
56046;DHT22;41913;51.030;3.706;2023-09-07T06:22:24;25.20;86.60
56046;DHT22;41913;51.030;3.706;2023-09-07T06:24:50;25.20;86.60
56046;DHT22;41913;51.030;3.706;2023-09-07T06:27:15;25.20;86.50
56046;DHT22;41913;51.030;3.706;2023-09-07T06:29:41;25.20;86.40
56046;DHT22;41913;51.030;3.706;2023-09-07T06:32:08;25.20;86.40
56046;DHT22;41913;51.030;3.706;2023-09-07T06:34:35;25.20;86.30
56046;DHT22;41913;51.030;3.706;2023-09-07T06:37:01;25.20;86.30
56046;DHT22;41913;51.030;3.706;2023-09-07T06:39:27;25.20;86.40
56046;DHT22;41913;51.030;3.706;2023-09-07T06:41:55;25.20;86.40
56046;DHT22;41913;51.030;3.706;2023-09-07T06:44:21;25.20;86.40
56046;DHT22;41913;51.030;3.706;2023-09-07T06:46:46;25.10;86.30
56046;DHT22;41913;51.030;3.706;2023-09-07T06:49:12;25.20;86.30
56046;DHT22;41913;51.030;3.706;2023-09-07T06:51:39;25.10;86.30
56046;DHT22;41913;51.030;3.706;2023-09-07T06:54:06;25.10;86.40
56046;DHT22;41913;51.030;3.706;2023-09-07T06:56:31;25.10;86.30
56046;DHT22;41913;51.030;3.706;2023-09-07T06:59:02;25.10;86.30
56046;DHT22;41913;51.030;3.706;2023-09-07T07:01:28;25.10;86.40
56046;DHT22;41913;51.030;3.706;2023-09-07T07:03:55;25.20;86.50
56046;DHT22;41913;51.030;3.706;2023-09-07T07:06:23;25.10;86.40
56046;DHT22;41913;51.030;3.706;2023-09-07T07:08:48;25.10;86.50
56046;DHT22;41913;51.030;3.706;2023-09-07T07:11:14;25.10;86.50
56046;DHT22;41913;51.030;3.706;2023-09-07T07:13:40;25.10;86.40
56046;DHT22;41913;51.030;3.706;2023-09-07T07:16:06;25.10;86.30
56046;DHT22;41913;51.030;3.706;2023-09-07T07:18:33;25.10;86.40
56046;DHT22;41913;51.030;3.706;2023-09-07T07:20:59;25.20;86.90
56046;DHT22;41913;51.030;3.706;2023-09-07T07:23:24;25.20;86.80
56046;DHT22;41913;51.030;3.706;2023-09-07T07:25:50;25.20;86.70
56046;DHT22;41913;51.030;3.706;2023-09-07T07:28:17;25.20;86.60
56046;DHT22;41913;51.030;3.706;2023-09-07T07:30:44;25.20;86.50
56046;DHT22;41913;51.030;3.706;2023-09-07T07:33:11;25.20;86.50
56046;DHT22;41913;51.030;3.706;2023-09-07T07:35:40;25.20;86.40
56046;DHT22;41913;51.030;3.706;2023-09-07T07:38:06;25.20;86.50
56046;DHT22;41913;51.030;3.706;2023-09-07T07:40:33;25.20;86.40
56046;DHT22;41913;51.030;3.706;2023-09-07T07:42:59;25.30;86.40
56046;DHT22;41913;51.030;3.706;2023-09-07T07:45:25;25.30;86.30
56046;DHT22;41913;51.030;3.706;2023-09-07T07:47:51;25.30;86.30
56046;DHT22;41913;51.030;3.706;2023-09-07T07:50:18;25.30;86.20
56046;DHT22;41913;51.030;3.706;2023-09-07T07:52:45;25.30;86.10
56046;DHT22;41913;51.030;3.706;2023-09-07T07:55:12;25.40;86.00
56046;DHT22;41913;51.030;3.706;2023-09-07T07:57:38;25.40;86.00
56046;DHT22;41913;51.030;3.706;2023-09-07T08:00:04;25.40;86.00
56046;DHT22;41913;51.030;3.706;2023-09-07T08:02:31;25.40;86.00
56046;DHT22;41913;51.030;3.706;2023-09-07T08:04:57;25.40;86.00
56046;DHT22;41913;51.030;3.706;2023-09-07T08:07:24;25.40;86.00
56046;DHT22;41913;51.030;3.706;2023-09-07T08:09:51;25.40;86.00
56046;DHT22;41913;51.030;3.706;2023-09-07T08:12:17;25.40;86.10
56046;DHT22;41913;51.030;3.706;2023-09-07T08:14:43;25.40;86.20
56046;DHT22;41913;51.030;3.706;2023-09-07T08:17:09;25.40;86.20
56046;DHT22;41913;51.030;3.706;2023-09-07T08:19:35;25.50;86.40
56046;DHT22;41913;51.030;3.706;2023-09-07T08:22:01;25.50;86.40
56046;DHT22;41913;51.030;3.706;2023-09-07T08:24:29;25.50;86.40
56046;DHT22;41913;51.030;3.706;2023-09-07T08:26:55;25.50;86.30
56046;DHT22;41913;51.030;3.706;2023-09-07T08:29:23;25.60;86.40
56046;DHT22;41913;51.030;3.706;2023-09-07T08:31:55;25.50;86.30
56046;DHT22;41913;51.030;3.706;2023-09-07T08:34:21;25.60;86.30
56046;DHT22;41913;51.030;3.706;2023-09-07T08:36:49;25.60;86.30
56046;DHT22;41913;51.030;3.706;2023-09-07T08:39:16;25.60;86.80
56046;DHT22;41913;51.030;3.706;2023-09-07T08:41:45;25.60;86.80
56046;DHT22;41913;51.030;3.706;2023-09-07T08:44:12;25.70;87.10
56046;DHT22;41913;51.030;3.706;2023-09-07T08:46:40;25.70;87.10
56046;DHT22;41913;51.030;3.706;2023-09-07T08:49:06;25.70;87.40
56046;DHT22;41913;51.030;3.706;2023-09-07T08:51:32;25.70;87.20
56046;DHT22;41913;51.030;3.706;2023-09-07T08:53:59;25.70;87.00
56046;DHT22;41913;51.030;3.706;2023-09-07T08:56:26;25.70;87.10
56046;DHT22;41913;51.030;3.706;2023-09-07T08:58:52;25.80;87.30
56046;DHT22;41913;51.030;3.706;2023-09-07T09:01:18;25.80;87.60
56046;DHT22;41913;51.030;3.706;2023-09-07T09:03:44;25.80;87.30
56046;DHT22;41913;51.030;3.706;2023-09-07T09:06:11;25.80;87.10
56046;DHT22;41913;51.030;3.706;2023-09-07T09:08:53;25.80;87.40
56046;DHT22;41913;51.030;3.706;2023-09-07T09:11:19;25.90;87.50
56046;DHT22;41913;51.030;3.706;2023-09-07T09:13:46;25.90;87.50
56046;DHT22;41913;51.030;3.706;2023-09-07T09:16:13;25.90;87.30
56046;DHT22;41913;51.030;3.706;2023-09-07T09:18:50;25.90;87.10
56046;DHT22;41913;51.030;3.706;2023-09-07T09:21:18;25.90;87.10
56046;DHT22;41913;51.030;3.706;2023-09-07T09:23:48;26.00;87.10
56046;DHT22;41913;51.030;3.706;2023-09-07T09:26:15;26.00;87.00
56046;DHT22;41913;51.030;3.706;2023-09-07T09:28:42;26.10;87.10
56046;DHT22;41913;51.030;3.706;2023-09-07T09:31:11;26.10;86.90
56046;DHT22;41913;51.030;3.706;2023-09-07T09:33:47;26.10;86.80
56046;DHT22;41913;51.030;3.706;2023-09-07T09:36:14;26.10;86.80
56046;DHT22;41913;51.030;3.706;2023-09-07T09:38:39;26.20;86.90
56046;DHT22;41913;51.030;3.706;2023-09-07T09:41:06;26.20;86.70
56046;DHT22;41913;51.030;3.706;2023-09-07T09:43:32;26.30;86.70
56046;DHT22;41913;51.030;3.706;2023-09-07T09:46:00;26.30;86.80
56046;DHT22;41913;51.030;3.706;2023-09-07T09:48:27;26.30;86.70
56046;DHT22;41913;51.030;3.706;2023-09-07T09:50:54;26.30;86.80
56046;DHT22;41913;51.030;3.706;2023-09-07T09:53:20;26.30;86.90
56046;DHT22;41913;51.030;3.706;2023-09-07T09:55:47;26.30;87.20
56046;DHT22;41913;51.030;3.706;2023-09-07T09:58:13;26.30;87.30
56046;DHT22;41913;51.030;3.706;2023-09-07T10:00:51;26.30;87.00
56046;DHT22;41913;51.030;3.706;2023-09-07T10:03:32;26.40;87.00
56046;DHT22;41913;51.030;3.706;2023-09-07T10:08:59;26.40;87.00
56046;DHT22;41913;51.030;3.706;2023-09-07T10:11:35;26.40;87.30
56046;DHT22;41913;51.030;3.706;2023-09-07T10:14:03;26.40;87.20
56046;DHT22;41913;51.030;3.706;2023-09-07T10:16:42;26.40;87.20
56046;DHT22;41913;51.030;3.706;2023-09-07T10:19:20;26.40;87.30
56046;DHT22;41913;51.030;3.706;2023-09-07T10:21:46;26.40;87.30
56046;DHT22;41913;51.030;3.706;2023-09-07T10:24:23;26.40;87.10
56046;DHT22;41913;51.030;3.706;2023-09-07T10:27:01;26.50;86.80
56046;DHT22;41913;51.030;3.706;2023-09-07T10:29:27;26.50;86.80
56046;DHT22;41913;51.030;3.706;2023-09-07T10:31:53;26.50;86.70
56046;DHT22;41913;51.030;3.706;2023-09-07T10:34:19;26.50;86.40
56046;DHT22;41913;51.030;3.706;2023-09-07T10:36:46;26.60;86.30
56046;DHT22;41913;51.030;3.706;2023-09-07T10:39:13;26.60;86.10
56046;DHT22;41913;51.030;3.706;2023-09-07T10:41:43;26.60;86.10
56046;DHT22;41913;51.030;3.706;2023-09-07T10:44:09;26.70;86.50
56046;DHT22;41913;51.030;3.706;2023-09-07T10:46:39;26.70;86.70
56046;DHT22;41913;51.030;3.706;2023-09-07T10:49:13;26.70;86.60
56046;DHT22;41913;51.030;3.706;2023-09-07T10:51:46;26.70;86.50
56046;DHT22;41913;51.030;3.706;2023-09-07T10:54:16;26.70;86.40
56046;DHT22;41913;51.030;3.706;2023-09-07T10:56:46;26.70;86.30
56046;DHT22;41913;51.030;3.706;2023-09-07T10:59:13;26.80;86.20
56046;DHT22;41913;51.030;3.706;2023-09-07T11:01:39;26.80;86.10
56046;DHT22;41913;51.030;3.706;2023-09-07T11:04:05;26.80;86.10
56046;DHT22;41913;51.030;3.706;2023-09-07T11:06:34;26.80;86.00
56046;DHT22;41913;51.030;3.706;2023-09-07T11:09:02;26.80;85.60
56046;DHT22;41913;51.030;3.706;2023-09-07T11:11:31;26.80;85.60
56046;DHT22;41913;51.030;3.706;2023-09-07T11:14:04;26.90;85.60
56046;DHT22;41913;51.030;3.706;2023-09-07T11:16:33;26.90;85.70
56046;DHT22;41913;51.030;3.706;2023-09-07T11:19:03;26.90;85.70
56046;DHT22;41913;51.030;3.706;2023-09-07T11:21:30;26.90;85.60
56046;DHT22;41913;51.030;3.706;2023-09-07T11:23:58;26.90;85.50
56046;DHT22;41913;51.030;3.706;2023-09-07T11:26:24;26.90;85.50
56046;DHT22;41913;51.030;3.706;2023-09-07T11:28:50;26.90;85.50
56046;DHT22;41913;51.030;3.706;2023-09-07T11:31:19;26.90;85.20
56046;DHT22;41913;51.030;3.706;2023-09-07T11:33:47;26.90;85.40
56046;DHT22;41913;51.030;3.706;2023-09-07T11:36:15;26.90;85.30
56046;DHT22;41913;51.030;3.706;2023-09-07T11:38:43;26.90;85.10
56046;DHT22;41913;51.030;3.706;2023-09-07T11:41:10;27.00;84.90
56046;DHT22;41913;51.030;3.706;2023-09-07T11:43:35;27.00;85.00
56046;DHT22;41913;51.030;3.706;2023-09-07T11:46:03;26.90;84.70
56046;DHT22;41913;51.030;3.706;2023-09-07T11:48:29;27.00;84.60
56046;DHT22;41913;51.030;3.706;2023-09-07T11:50:55;27.00;84.40
56046;DHT22;41913;51.030;3.706;2023-09-07T11:53:20;27.00;84.50
56046;DHT22;41913;51.030;3.706;2023-09-07T11:55:46;27.00;84.40
56046;DHT22;41913;51.030;3.706;2023-09-07T11:58:12;27.00;84.80
56046;DHT22;41913;51.030;3.706;2023-09-07T12:00:39;27.00;84.80
56046;DHT22;41913;51.030;3.706;2023-09-07T12:03:07;27.00;84.80
56046;DHT22;41913;51.030;3.706;2023-09-07T12:05:34;27.00;85.20
56046;DHT22;41913;51.030;3.706;2023-09-07T12:08:01;27.00;84.90
56046;DHT22;41913;51.030;3.706;2023-09-07T12:10:27;27.00;84.60
56046;DHT22;41913;51.030;3.706;2023-09-07T12:12:52;27.00;84.40
56046;DHT22;41913;51.030;3.706;2023-09-07T12:15:18;27.10;84.80
56046;DHT22;41913;51.030;3.706;2023-09-07T12:17:44;27.10;84.80
56046;DHT22;41913;51.030;3.706;2023-09-07T12:20:10;27.10;84.80
56046;DHT22;41913;51.030;3.706;2023-09-07T12:22:39;27.10;84.90
56046;DHT22;41913;51.030;3.706;2023-09-07T12:25:06;27.10;85.10
56046;DHT22;41913;51.030;3.706;2023-09-07T12:27:36;27.10;85.30
56046;DHT22;41913;51.030;3.706;2023-09-07T12:30:02;27.10;85.60
56046;DHT22;41913;51.030;3.706;2023-09-07T12:32:32;27.10;85.90
56046;DHT22;41913;51.030;3.706;2023-09-07T12:34:57;27.10;86.20
56046;DHT22;41913;51.030;3.706;2023-09-07T12:37:23;27.10;86.40
56046;DHT22;41913;51.030;3.706;2023-09-07T12:39:50;27.10;86.50
56046;DHT22;41913;51.030;3.706;2023-09-07T12:42:16;27.10;86.60
56046;DHT22;41913;51.030;3.706;2023-09-07T12:44:44;27.10;86.60
56046;DHT22;41913;51.030;3.706;2023-09-07T12:47:10;27.10;86.70
56046;DHT22;41913;51.030;3.706;2023-09-07T12:49:36;27.10;86.70
56046;DHT22;41913;51.030;3.706;2023-09-07T12:52:01;27.10;86.80
56046;DHT22;41913;51.030;3.706;2023-09-07T12:54:34;27.10;86.70
56046;DHT22;41913;51.030;3.706;2023-09-07T12:57:01;27.10;86.80
56046;DHT22;41913;51.030;3.706;2023-09-07T12:59:26;27.10;86.90
56046;DHT22;41913;51.030;3.706;2023-09-07T13:01:52;27.10;87.00
56046;DHT22;41913;51.030;3.706;2023-09-07T13:04:21;27.10;87.10
56046;DHT22;41913;51.030;3.706;2023-09-07T13:06:47;27.10;87.20
56046;DHT22;41913;51.030;3.706;2023-09-07T13:09:14;27.10;87.30
56046;DHT22;41913;51.030;3.706;2023-09-07T13:11:39;27.10;87.40
56046;DHT22;41913;51.030;3.706;2023-09-07T13:14:05;27.10;87.50
56046;DHT22;41913;51.030;3.706;2023-09-07T13:16:34;27.10;87.50
56046;DHT22;41913;51.030;3.706;2023-09-07T13:19:00;27.10;87.60
56046;DHT22;41913;51.030;3.706;2023-09-07T13:21:25;27.10;87.60
56046;DHT22;41913;51.030;3.706;2023-09-07T13:23:51;27.10;87.70
56046;DHT22;41913;51.030;3.706;2023-09-07T13:26:17;27.00;87.70
56046;DHT22;41913;51.030;3.706;2023-09-07T13:28:42;27.00;87.70
56046;DHT22;41913;51.030;3.706;2023-09-07T13:31:08;27.00;87.70
56046;DHT22;41913;51.030;3.706;2023-09-07T13:33:34;27.00;87.70
56046;DHT22;41913;51.030;3.706;2023-09-07T13:36:00;27.00;87.70
56046;DHT22;41913;51.030;3.706;2023-09-07T13:38:27;27.00;87.80
56046;DHT22;41913;51.030;3.706;2023-09-07T13:40:52;27.00;87.80
56046;DHT22;41913;51.030;3.706;2023-09-07T13:43:18;27.00;87.90
56046;DHT22;41913;51.030;3.706;2023-09-07T13:45:44;27.00;87.90
56046;DHT22;41913;51.030;3.706;2023-09-07T13:48:10;27.00;87.90
56046;DHT22;41913;51.030;3.706;2023-09-07T13:50:35;27.10;88.00
56046;DHT22;41913;51.030;3.706;2023-09-07T13:53:01;27.10;88.10
56046;DHT22;41913;51.030;3.706;2023-09-07T13:55:27;27.10;88.10
56046;DHT22;41913;51.030;3.706;2023-09-07T13:57:53;27.10;88.10
56046;DHT22;41913;51.030;3.706;2023-09-07T14:00:19;27.10;88.10
56046;DHT22;41913;51.030;3.706;2023-09-07T14:02:45;27.10;88.10
56046;DHT22;41913;51.030;3.706;2023-09-07T14:05:10;27.10;88.20
56046;DHT22;41913;51.030;3.706;2023-09-07T14:07:36;27.10;88.20
56046;DHT22;41913;51.030;3.706;2023-09-07T14:10:02;27.10;88.10
56046;DHT22;41913;51.030;3.706;2023-09-07T14:12:28;27.10;88.20
56046;DHT22;41913;51.030;3.706;2023-09-07T14:14:53;27.10;88.10
56046;DHT22;41913;51.030;3.706;2023-09-07T14:17:19;27.10;88.10
56046;DHT22;41913;51.030;3.706;2023-09-07T14:19:45;27.10;88.10
56046;DHT22;41913;51.030;3.706;2023-09-07T14:22:12;27.10;88.10
56046;DHT22;41913;51.030;3.706;2023-09-07T14:24:38;27.10;88.20
56046;DHT22;41913;51.030;3.706;2023-09-07T14:27:04;27.10;88.10
56046;DHT22;41913;51.030;3.706;2023-09-07T14:29:31;27.20;88.20
56046;DHT22;41913;51.030;3.706;2023-09-07T14:31:57;27.20;88.30
56046;DHT22;41913;51.030;3.706;2023-09-07T14:34:23;27.20;88.30
56046;DHT22;41913;51.030;3.706;2023-09-07T14:36:49;27.20;88.40
56046;DHT22;41913;51.030;3.706;2023-09-07T14:39:14;27.20;88.30
56046;DHT22;41913;51.030;3.706;2023-09-07T14:41:41;27.20;88.20
56046;DHT22;41913;51.030;3.706;2023-09-07T14:44:08;27.20;88.10
56046;DHT22;41913;51.030;3.706;2023-09-07T14:46:35;27.20;88.10
56046;DHT22;41913;51.030;3.706;2023-09-07T14:49:01;27.20;88.20
56046;DHT22;41913;51.030;3.706;2023-09-07T14:51:27;27.20;88.30
56046;DHT22;41913;51.030;3.706;2023-09-07T14:53:53;27.20;88.60
56046;DHT22;41913;51.030;3.706;2023-09-07T14:56:19;27.20;88.60
56046;DHT22;41913;51.030;3.706;2023-09-07T14:58:45;27.20;88.40
56046;DHT22;41913;51.030;3.706;2023-09-07T15:01:11;27.20;88.40
56046;DHT22;41913;51.030;3.706;2023-09-07T15:03:37;27.20;88.40
56046;DHT22;41913;51.030;3.706;2023-09-07T15:06:06;27.20;88.50
56046;DHT22;41913;51.030;3.706;2023-09-07T15:08:33;27.20;88.50
56046;DHT22;41913;51.030;3.706;2023-09-07T15:11:00;27.20;88.50
56046;DHT22;41913;51.030;3.706;2023-09-07T15:13:26;27.20;88.50
56046;DHT22;41913;51.030;3.706;2023-09-07T15:15:51;27.20;88.50
56046;DHT22;41913;51.030;3.706;2023-09-07T15:18:17;27.20;88.50
56046;DHT22;41913;51.030;3.706;2023-09-07T15:20:43;27.20;88.60
56046;DHT22;41913;51.030;3.706;2023-09-07T15:23:09;27.20;88.70
56046;DHT22;41913;51.030;3.706;2023-09-07T15:25:34;27.20;88.70
56046;DHT22;41913;51.030;3.706;2023-09-07T15:28:01;27.20;88.70
56046;DHT22;41913;51.030;3.706;2023-09-07T15:30:27;27.20;88.70